sensor_id;sensor_type;location;lat;lon;timestamp;P1;durP1;ratioP1;P2;durP2;ratioP2
31128;SDS011;17777;48.770;8.944;2023-06-10T00:01:49;4.13;;;2.75;;
31128;SDS011;17777;48.770;8.944;2023-06-10T00:04:15;2.92;;;2.67;;
31128;SDS011;17777;48.770;8.944;2023-06-10T00:06:42;2.85;;;2.63;;
31128;SDS011;17777;48.770;8.944;2023-06-10T00:09:09;4.53;;;2.78;;
31128;SDS011;17777;48.770;8.944;2023-06-10T00:11:39;3.40;;;2.95;;
31128;SDS011;17777;48.770;8.944;2023-06-10T00:14:06;3.00;;;2.72;;
31128;SDS011;17777;48.770;8.944;2023-06-10T00:16:32;3.20;;;2.90;;
31128;SDS011;17777;48.770;8.944;2023-06-10T00:19:02;3.17;;;2.63;;
31128;SDS011;17777;48.770;8.944;2023-06-10T00:21:29;3.28;;;2.97;;
31128;SDS011;17777;48.770;8.944;2023-06-10T00:24:06;2.92;;;2.55;;
31128;SDS011;17777;48.770;8.944;2023-06-10T00:26:36;3.40;;;2.60;;
31128;SDS011;17777;48.770;8.944;2023-06-10T00:29:06;2.88;;;2.58;;
31128;SDS011;17777;48.770;8.944;2023-06-10T00:31:37;2.55;;;2.35;;
31128;SDS011;17777;48.770;8.944;2023-06-10T00:34:05;4.45;;;2.78;;
31128;SDS011;17777;48.770;8.944;2023-06-10T00:36:32;2.70;;;2.47;;
31128;SDS011;17777;48.770;8.944;2023-06-10T00:38:58;2.90;;;2.70;;
31128;SDS011;17777;48.770;8.944;2023-06-10T00:41:24;3.17;;;2.88;;
31128;SDS011;17777;48.770;8.944;2023-06-10T00:43:51;2.80;;;2.55;;
31128;SDS011;17777;48.770;8.944;2023-06-10T00:46:17;3.15;;;2.70;;
31128;SDS011;17777;48.770;8.944;2023-06-10T00:48:44;2.72;;;2.53;;
31128;SDS011;17777;48.770;8.944;2023-06-10T00:51:10;4.57;;;2.80;;
31128;SDS011;17777;48.770;8.944;2023-06-10T00:53:37;2.72;;;2.47;;
31128;SDS011;17777;48.770;8.944;2023-06-10T00:56:06;2.80;;;2.60;;
31128;SDS011;17777;48.770;8.944;2023-06-10T00:58:34;3.10;;;2.80;;
31128;SDS011;17777;48.770;8.944;2023-06-10T01:01:01;3.33;;;3.00;;
31128;SDS011;17777;48.770;8.944;2023-06-10T01:03:27;3.35;;;2.88;;
31128;SDS011;17777;48.770;8.944;2023-06-10T01:05:57;4.47;;;2.67;;
31128;SDS011;17777;48.770;8.944;2023-06-10T01:11:45;2.78;;;2.58;;
31128;SDS011;17777;48.770;8.944;2023-06-10T01:14:36;5.55;;;2.83;;
31128;SDS011;17777;48.770;8.944;2023-06-10T01:17:04;5.20;;;2.97;;
31128;SDS011;17777;48.770;8.944;2023-06-10T01:19:32;3.28;;;2.97;;
31128;SDS011;17777;48.770;8.944;2023-06-10T01:21:58;4.15;;;2.75;;
31128;SDS011;17777;48.770;8.944;2023-06-10T01:24:28;2.72;;;2.53;;
31128;SDS011;17777;48.770;8.944;2023-06-10T01:26:59;4.80;;;3.10;;
31128;SDS011;17777;48.770;8.944;2023-06-10T01:29:33;3.28;;;3.00;;
31128;SDS011;17777;48.770;8.944;2023-06-10T01:35:01;2.90;;;2.70;;
31128;SDS011;17777;48.770;8.944;2023-06-10T01:37:28;3.30;;;3.00;;
31128;SDS011;17777;48.770;8.944;2023-06-10T01:39:57;3.33;;;2.83;;
31128;SDS011;17777;48.770;8.944;2023-06-10T01:42:25;3.08;;;2.78;;
31128;SDS011;17777;48.770;8.944;2023-06-10T01:44:51;3.22;;;2.92;;
31128;SDS011;17777;48.770;8.944;2023-06-10T01:47:18;3.05;;;2.75;;
31128;SDS011;17777;48.770;8.944;2023-06-10T01:49:43;2.60;;;2.40;;
31128;SDS011;17777;48.770;8.944;2023-06-10T01:52:09;2.78;;;2.58;;
31128;SDS011;17777;48.770;8.944;2023-06-10T01:54:35;3.00;;;2.67;;
31128;SDS011;17777;48.770;8.944;2023-06-10T01:57:02;3.65;;;3.10;;
31128;SDS011;17777;48.770;8.944;2023-06-10T01:59:28;3.92;;;2.90;;
31128;SDS011;17777;48.770;8.944;2023-06-10T02:01:54;3.17;;;2.83;;
31128;SDS011;17777;48.770;8.944;2023-06-10T02:04:19;3.10;;;2.65;;
31128;SDS011;17777;48.770;8.944;2023-06-10T02:06:45;3.67;;;2.80;;
31128;SDS011;17777;48.770;8.944;2023-06-10T02:09:11;3.60;;;3.10;;
31128;SDS011;17777;48.770;8.944;2023-06-10T02:11:37;2.47;;;2.28;;
31128;SDS011;17777;48.770;8.944;2023-06-10T02:14:02;3.97;;;3.08;;
31128;SDS011;17777;48.770;8.944;2023-06-10T02:16:29;4.50;;;3.30;;
31128;SDS011;17777;48.770;8.944;2023-06-10T02:18:56;3.17;;;2.88;;
31128;SDS011;17777;48.770;8.944;2023-06-10T02:21:22;3.17;;;2.88;;
31128;SDS011;17777;48.770;8.944;2023-06-10T02:23:48;3.00;;;2.75;;
31128;SDS011;17777;48.770;8.944;2023-06-10T02:26:14;2.80;;;2.60;;
31128;SDS011;17777;48.770;8.944;2023-06-10T02:28:43;3.55;;;2.75;;
31128;SDS011;17777;48.770;8.944;2023-06-10T02:31:09;4.07;;;2.72;;
31128;SDS011;17777;48.770;8.944;2023-06-10T02:33:36;3.28;;;2.97;;
31128;SDS011;17777;48.770;8.944;2023-06-10T02:36:05;3.15;;;2.80;;
31128;SDS011;17777;48.770;8.944;2023-06-10T02:38:31;3.40;;;3.10;;
31128;SDS011;17777;48.770;8.944;2023-06-10T02:40:59;3.33;;;3.03;;
31128;SDS011;17777;48.770;8.944;2023-06-10T02:43:24;3.13;;;2.83;;
31128;SDS011;17777;48.770;8.944;2023-06-10T02:45:51;3.45;;;3.15;;
31128;SDS011;17777;48.770;8.944;2023-06-10T02:48:17;4.22;;;3.10;;
31128;SDS011;17777;48.770;8.944;2023-06-10T02:50:43;2.88;;;2.67;;
31128;SDS011;17777;48.770;8.944;2023-06-10T02:53:16;3.45;;;2.95;;
31128;SDS011;17777;48.770;8.944;2023-06-10T02:55:47;3.75;;;3.13;;
31128;SDS011;17777;48.770;8.944;2023-06-10T02:58:15;3.13;;;2.75;;
31128;SDS011;17777;48.770;8.944;2023-06-10T03:00:42;2.92;;;2.63;;
31128;SDS011;17777;48.770;8.944;2023-06-10T03:03:09;3.05;;;2.75;;
31128;SDS011;17777;48.770;8.944;2023-06-10T03:08:09;2.92;;;2.60;;
31128;SDS011;17777;48.770;8.944;2023-06-10T03:10:39;2.63;;;2.42;;
31128;SDS011;17777;48.770;8.944;2023-06-10T03:13:05;3.90;;;3.03;;
31128;SDS011;17777;48.770;8.944;2023-06-10T03:15:31;3.28;;;2.95;;
31128;SDS011;17777;48.770;8.944;2023-06-10T03:18:00;3.50;;;3.20;;
31128;SDS011;17777;48.770;8.944;2023-06-10T03:20:27;3.10;;;2.80;;
31128;SDS011;17777;48.770;8.944;2023-06-10T03:22:53;3.17;;;2.88;;
31128;SDS011;17777;48.770;8.944;2023-06-10T03:25:19;4.85;;;3.20;;
31128;SDS011;17777;48.770;8.944;2023-06-10T03:27:49;3.22;;;2.92;;
31128;SDS011;17777;48.770;8.944;2023-06-10T03:30:17;3.80;;;3.10;;
31128;SDS011;17777;48.770;8.944;2023-06-10T03:32:45;3.88;;;2.85;;
31128;SDS011;17777;48.770;8.944;2023-06-10T03:35:14;3.10;;;2.80;;
31128;SDS011;17777;48.770;8.944;2023-06-10T03:37:40;3.47;;;2.90;;
31128;SDS011;17777;48.770;8.944;2023-06-10T03:40:07;3.22;;;2.90;;
31128;SDS011;17777;48.770;8.944;2023-06-10T03:42:36;3.03;;;2.80;;
31128;SDS011;17777;48.770;8.944;2023-06-10T03:45:02;3.75;;;2.92;;
31128;SDS011;17777;48.770;8.944;2023-06-10T03:47:36;3.35;;;3.05;;
31128;SDS011;17777;48.770;8.944;2023-06-10T03:50:06;4.47;;;2.60;;
31128;SDS011;17777;48.770;8.944;2023-06-10T03:52:34;3.28;;;2.97;;
31128;SDS011;17777;48.770;8.944;2023-06-10T03:55:01;4.03;;;3.47;;
31128;SDS011;17777;48.770;8.944;2023-06-10T03:57:27;3.70;;;3.40;;
31128;SDS011;17777;48.770;8.944;2023-06-10T03:59:53;4.00;;;2.88;;
31128;SDS011;17777;48.770;8.944;2023-06-10T04:02:20;3.47;;;3.17;;
31128;SDS011;17777;48.770;8.944;2023-06-10T04:04:46;3.92;;;3.53;;
31128;SDS011;17777;48.770;8.944;2023-06-10T04:07:13;3.70;;;3.17;;
31128;SDS011;17777;48.770;8.944;2023-06-10T04:09:39;3.80;;;3.10;;
31128;SDS011;17777;48.770;8.944;2023-06-10T04:12:05;3.08;;;2.78;;
31128;SDS011;17777;48.770;8.944;2023-06-10T04:14:33;2.67;;;2.47;;
31128;SDS011;17777;48.770;8.944;2023-06-10T04:17:03;4.03;;;3.08;;
31128;SDS011;17777;48.770;8.944;2023-06-10T04:19:35;3.67;;;2.80;;
31128;SDS011;17777;48.770;8.944;2023-06-10T04:22:01;3.47;;;3.03;;
31128;SDS011;17777;48.770;8.944;2023-06-10T04:24:29;3.88;;;2.92;;
31128;SDS011;17777;48.770;8.944;2023-06-10T04:26:56;3.40;;;3.10;;
31128;SDS011;17777;48.770;8.944;2023-06-10T04:29:21;3.58;;;3.28;;
31128;SDS011;17777;48.770;8.944;2023-06-10T04:31:47;3.33;;;2.80;;
31128;SDS011;17777;48.770;8.944;2023-06-10T04:34:14;4.53;;;2.83;;
31128;SDS011;17777;48.770;8.944;2023-06-10T04:36:40;3.65;;;3.20;;
31128;SDS011;17777;48.770;8.944;2023-06-10T04:39:06;3.50;;;3.00;;
31128;SDS011;17777;48.770;8.944;2023-06-10T04:41:32;3.38;;;3.08;;
31128;SDS011;17777;48.770;8.944;2023-06-10T04:43:58;3.22;;;2.92;;
31128;SDS011;17777;48.770;8.944;2023-06-10T04:46:24;2.83;;;2.63;;
31128;SDS011;17777;48.770;8.944;2023-06-10T04:48:50;3.42;;;2.88;;
31128;SDS011;17777;48.770;8.944;2023-06-10T04:51:16;3.50;;;3.17;;
31128;SDS011;17777;48.770;8.944;2023-06-10T04:53:42;3.30;;;3.00;;
31128;SDS011;17777;48.770;8.944;2023-06-10T04:56:08;3.33;;;2.95;;
31128;SDS011;17777;48.770;8.944;2023-06-10T04:58:34;3.53;;;3.20;;
31128;SDS011;17777;48.770;8.944;2023-06-10T05:01:00;4.20;;;3.40;;
31128;SDS011;17777;48.770;8.944;2023-06-10T05:03:27;3.70;;;3.40;;
31128;SDS011;17777;48.770;8.944;2023-06-10T05:05:52;3.53;;;3.22;;
31128;SDS011;17777;48.770;8.944;2023-06-10T05:08:18;3.70;;;3.20;;
31128;SDS011;17777;48.770;8.944;2023-06-10T05:10:45;4.90;;;3.15;;
31128;SDS011;17777;48.770;8.944;2023-06-10T05:13:10;3.90;;;3.50;;
31128;SDS011;17777;48.770;8.944;2023-06-10T05:15:36;3.55;;;3.25;;
31128;SDS011;17777;48.770;8.944;2023-06-10T05:18:02;3.90;;;3.45;;
31128;SDS011;17777;48.770;8.944;2023-06-10T05:20:28;3.50;;;3.20;;
31128;SDS011;17777;48.770;8.944;2023-06-10T05:22:54;4.22;;;3.67;;
31128;SDS011;17777;48.770;8.944;2023-06-10T05:25:20;3.65;;;3.35;;
31128;SDS011;17777;48.770;8.944;2023-06-10T05:27:46;4.47;;;3.42;;
31128;SDS011;17777;48.770;8.944;2023-06-10T05:30:12;3.80;;;3.40;;
31128;SDS011;17777;48.770;8.944;2023-06-10T05:32:38;4.03;;;3.60;;
31128;SDS011;17777;48.770;8.944;2023-06-10T05:35:04;3.60;;;3.30;;
31128;SDS011;17777;48.770;8.944;2023-06-10T05:37:31;4.10;;;3.58;;
31128;SDS011;17777;48.770;8.944;2023-06-10T05:39:59;3.63;;;3.33;;
31128;SDS011;17777;48.770;8.944;2023-06-10T05:42:25;4.07;;;3.45;;
31128;SDS011;17777;48.770;8.944;2023-06-10T05:44:51;3.42;;;3.13;;
31128;SDS011;17777;48.770;8.944;2023-06-10T05:47:16;4.65;;;3.88;;
31128;SDS011;17777;48.770;8.944;2023-06-10T05:49:42;3.42;;;3.13;;
31128;SDS011;17777;48.770;8.944;2023-06-10T05:52:10;2.90;;;2.70;;
31128;SDS011;17777;48.770;8.944;2023-06-10T05:54:36;4.03;;;3.63;;
31128;SDS011;17777;48.770;8.944;2023-06-10T05:57:02;5.38;;;3.38;;
31128;SDS011;17777;48.770;8.944;2023-06-10T05:59:28;3.70;;;3.40;;
31128;SDS011;17777;48.770;8.944;2023-06-10T06:01:54;3.85;;;3.55;;
31128;SDS011;17777;48.770;8.944;2023-06-10T06:04:20;3.38;;;3.10;;
31128;SDS011;17777;48.770;8.944;2023-06-10T06:06:45;3.45;;;3.15;;
31128;SDS011;17777;48.770;8.944;2023-06-10T06:09:11;3.22;;;2.75;;
31128;SDS011;17777;48.770;8.944;2023-06-10T06:11:37;3.85;;;3.10;;
31128;SDS011;17777;48.770;8.944;2023-06-10T06:14:03;2.92;;;2.63;;
31128;SDS011;17777;48.770;8.944;2023-06-10T06:16:29;3.42;;;3.13;;
31128;SDS011;17777;48.770;8.944;2023-06-10T06:18:55;3.05;;;2.80;;
31128;SDS011;17777;48.770;8.944;2023-06-10T06:21:20;3.08;;;2.75;;
31128;SDS011;17777;48.770;8.944;2023-06-10T06:23:46;2.67;;;2.47;;
31128;SDS011;17777;48.770;8.944;2023-06-10T06:26:12;3.30;;;2.70;;
31128;SDS011;17777;48.770;8.944;2023-06-10T06:28:38;3.72;;;3.33;;
31128;SDS011;17777;48.770;8.944;2023-06-10T06:31:03;2.65;;;2.45;;
31128;SDS011;17777;48.770;8.944;2023-06-10T06:33:29;2.75;;;2.55;;
31128;SDS011;17777;48.770;8.944;2023-06-10T06:35:55;3.65;;;2.65;;
31128;SDS011;17777;48.770;8.944;2023-06-10T06:38:21;3.15;;;2.85;;
31128;SDS011;17777;48.770;8.944;2023-06-10T06:40:47;3.22;;;2.70;;
31128;SDS011;17777;48.770;8.944;2023-06-10T06:43:13;2.28;;;2.10;;
31128;SDS011;17777;48.770;8.944;2023-06-10T06:45:47;2.88;;;2.67;;
31128;SDS011;17777;48.770;8.944;2023-06-10T06:48:13;2.60;;;2.40;;
31128;SDS011;17777;48.770;8.944;2023-06-10T06:50:38;2.78;;;2.58;;
31128;SDS011;17777;48.770;8.944;2023-06-10T06:53:06;2.78;;;2.38;;
31128;SDS011;17777;48.770;8.944;2023-06-10T06:55:32;2.30;;;2.10;;
31128;SDS011;17777;48.770;8.944;2023-06-10T06:57:58;2.63;;;2.42;;
31128;SDS011;17777;48.770;8.944;2023-06-10T07:00:27;2.42;;;2.22;;
31128;SDS011;17777;48.770;8.944;2023-06-10T07:02:53;2.63;;;2.13;;
31128;SDS011;17777;48.770;8.944;2023-06-10T07:05:19;2.38;;;2.17;;
31128;SDS011;17777;48.770;8.944;2023-06-10T07:07:45;2.50;;;2.30;;
31128;SDS011;17777;48.770;8.944;2023-06-10T07:10:10;2.28;;;2.08;;
31128;SDS011;17777;48.770;8.944;2023-06-10T07:12:37;2.20;;;2.00;;
31128;SDS011;17777;48.770;8.944;2023-06-10T07:15:03;2.40;;;2.22;;
31128;SDS011;17777;48.770;8.944;2023-06-10T07:17:30;2.42;;;2.22;;
31128;SDS011;17777;48.770;8.944;2023-06-10T07:19:55;2.95;;;2.20;;
31128;SDS011;17777;48.770;8.944;2023-06-10T07:22:24;2.42;;;2.22;;
31128;SDS011;17777;48.770;8.944;2023-06-10T07:24:50;2.55;;;2.35;;
31128;SDS011;17777;48.770;8.944;2023-06-10T07:27:16;2.28;;;2.08;;
31128;SDS011;17777;48.770;8.944;2023-06-10T07:29:43;2.08;;;1.88;;
31128;SDS011;17777;48.770;8.944;2023-06-10T07:32:08;2.65;;;2.10;;
31128;SDS011;17777;48.770;8.944;2023-06-10T07:34:34;2.38;;;2.17;;
31128;SDS011;17777;48.770;8.944;2023-06-10T07:37:00;2.75;;;2.55;;
31128;SDS011;17777;48.770;8.944;2023-06-10T07:39:26;2.88;;;2.35;;
31128;SDS011;17777;48.770;8.944;2023-06-10T07:41:51;2.00;;;1.90;;
31128;SDS011;17777;48.770;8.944;2023-06-10T07:44:19;2.50;;;2.03;;
31128;SDS011;17777;48.770;8.944;2023-06-10T07:46:45;2.30;;;2.08;;
31128;SDS011;17777;48.770;8.944;2023-06-10T07:49:10;1.98;;;1.88;;
31128;SDS011;17777;48.770;8.944;2023-06-10T07:51:36;2.25;;;2.05;;
31128;SDS011;17777;48.770;8.944;2023-06-10T07:54:02;2.50;;;2.30;;
31128;SDS011;17777;48.770;8.944;2023-06-10T07:56:28;2.20;;;2.05;;
31128;SDS011;17777;48.770;8.944;2023-06-10T07:58:54;2.40;;;2.20;;
31128;SDS011;17777;48.770;8.944;2023-06-10T08:01:19;2.13;;;1.95;;
31128;SDS011;17777;48.770;8.944;2023-06-10T08:03:45;2.08;;;1.98;;
31128;SDS011;17777;48.770;8.944;2023-06-10T08:06:11;2.40;;;2.20;;
31128;SDS011;17777;48.770;8.944;2023-06-10T08:08:37;2.33;;;2.13;;
31128;SDS011;17777;48.770;8.944;2023-06-10T08:11:08;3.63;;;2.17;;
31128;SDS011;17777;48.770;8.944;2023-06-10T08:13:34;2.20;;;2.00;;
31128;SDS011;17777;48.770;8.944;2023-06-10T08:15:59;2.67;;;2.47;;
31128;SDS011;17777;48.770;8.944;2023-06-10T08:18:25;2.88;;;2.67;;
31128;SDS011;17777;48.770;8.944;2023-06-10T08:20:51;2.88;;;2.60;;
31128;SDS011;17777;48.770;8.944;2023-06-10T08:23:17;3.33;;;3.03;;
31128;SDS011;17777;48.770;8.944;2023-06-10T08:25:44;3.30;;;2.83;;
31128;SDS011;17777;48.770;8.944;2023-06-10T08:28:10;2.92;;;2.63;;
31128;SDS011;17777;48.770;8.944;2023-06-10T08:30:36;2.80;;;2.60;;
31128;SDS011;17777;48.770;8.944;2023-06-10T08:33:02;3.08;;;2.78;;
31128;SDS011;17777;48.770;8.944;2023-06-10T08:35:27;3.03;;;2.58;;
31128;SDS011;17777;48.770;8.944;2023-06-10T08:37:53;2.65;;;2.45;;
31128;SDS011;17777;48.770;8.944;2023-06-10T08:40:19;6.05;;;2.40;;
31128;SDS011;17777;48.770;8.944;2023-06-10T08:42:45;2.60;;;2.40;;
31128;SDS011;17777;48.770;8.944;2023-06-10T08:45:27;2.60;;;2.40;;
31128;SDS011;17777;48.770;8.944;2023-06-10T08:48:00;2.28;;;2.08;;
31128;SDS011;17777;48.770;8.944;2023-06-10T08:50:34;2.30;;;2.10;;
31128;SDS011;17777;48.770;8.944;2023-06-10T08:53:04;2.00;;;1.90;;
31128;SDS011;17777;48.770;8.944;2023-06-10T08:55:32;2.28;;;2.08;;
31128;SDS011;17777;48.770;8.944;2023-06-10T08:58:01;2.85;;;2.65;;
31128;SDS011;17777;48.770;8.944;2023-06-10T09:00:29;2.50;;;2.30;;
31128;SDS011;17777;48.770;8.944;2023-06-10T09:02:57;2.25;;;2.05;;
31128;SDS011;17777;48.770;8.944;2023-06-10T09:05:24;2.75;;;2.55;;
31128;SDS011;17777;48.770;8.944;2023-06-10T09:07:51;1.98;;;1.88;;
31128;SDS011;17777;48.770;8.944;2023-06-10T09:10:18;2.47;;;2.28;;
31128;SDS011;17777;48.770;8.944;2023-06-10T09:12:43;2.13;;;1.92;;
31128;SDS011;17777;48.770;8.944;2023-06-10T09:15:10;2.10;;;1.90;;
31128;SDS011;17777;48.770;8.944;2023-06-10T09:17:37;2.25;;;2.05;;
31128;SDS011;17777;48.770;8.944;2023-06-10T09:20:06;1.88;;;1.77;;
31128;SDS011;17777;48.770;8.944;2023-06-10T09:22:33;2.38;;;2.17;;
31128;SDS011;17777;48.770;8.944;2023-06-10T09:25:06;2.00;;;1.90;;
31128;SDS011;17777;48.770;8.944;2023-06-10T09:27:55;2.25;;;2.10;;
31128;SDS011;17777;48.770;8.944;2023-06-10T09:30:24;3.38;;;2.30;;
31128;SDS011;17777;48.770;8.944;2023-06-10T09:32:57;2.50;;;2.30;;
31128;SDS011;17777;48.770;8.944;2023-06-10T09:35:25;1.95;;;1.85;;
31128;SDS011;17777;48.770;8.944;2023-06-10T09:37:53;1.90;;;1.80;;
31128;SDS011;17777;48.770;8.944;2023-06-10T09:40:23;2.47;;;2.10;;
31128;SDS011;17777;48.770;8.944;2023-06-10T09:42:53;2.30;;;2.10;;
31128;SDS011;17777;48.770;8.944;2023-06-10T09:45:29;2.28;;;2.17;;
31128;SDS011;17777;48.770;8.944;2023-06-10T09:50:24;1.90;;;1.63;;
31128;SDS011;17777;48.770;8.944;2023-06-10T09:52:51;2.50;;;2.08;;
31128;SDS011;17777;48.770;8.944;2023-06-10T09:55:17;2.60;;;2.08;;
31128;SDS011;17777;48.770;8.944;2023-06-10T09:57:43;1.98;;;1.88;;
31128;SDS011;17777;48.770;8.944;2023-06-10T10:00:13;2.15;;;2.05;;
31128;SDS011;17777;48.770;8.944;2023-06-10T10:02:50;2.08;;;1.98;;
31128;SDS011;17777;48.770;8.944;2023-06-10T10:05:20;10.55;;;3.63;;
31128;SDS011;17777;48.770;8.944;2023-06-10T10:07:47;4.65;;;2.70;;
31128;SDS011;17777;48.770;8.944;2023-06-10T10:10:14;4.45;;;3.05;;
31128;SDS011;17777;48.770;8.944;2023-06-10T10:12:42;2.30;;;2.10;;
31128;SDS011;17777;48.770;8.944;2023-06-10T10:15:11;2.55;;;2.35;;
31128;SDS011;17777;48.770;8.944;2023-06-10T10:17:40;2.60;;;2.40;;
31128;SDS011;17777;48.770;8.944;2023-06-10T10:20:16;1.92;;;1.83;;
31128;SDS011;17777;48.770;8.944;2023-06-10T10:22:46;2.25;;;2.00;;
31128;SDS011;17777;48.770;8.944;2023-06-10T10:25:16;2.22;;;2.10;;
31128;SDS011;17777;48.770;8.944;2023-06-10T10:27:50;2.50;;;1.90;;
31128;SDS011;17777;48.770;8.944;2023-06-10T10:30:21;2.00;;;1.90;;
31128;SDS011;17777;48.770;8.944;2023-06-10T10:33:04;2.10;;;1.90;;
31128;SDS011;17777;48.770;8.944;2023-06-10T10:35:34;3.17;;;1.83;;
31128;SDS011;17777;48.770;8.944;2023-06-10T10:38:02;2.08;;;1.92;;
31128;SDS011;17777;48.770;8.944;2023-06-10T10:40:30;2.15;;;1.95;;
31128;SDS011;17777;48.770;8.944;2023-06-10T10:42:57;2.22;;;2.05;;
31128;SDS011;17777;48.770;8.944;2023-06-10T10:45:27;2.33;;;2.13;;
31128;SDS011;17777;48.770;8.944;2023-06-10T10:47:53;3.42;;;2.00;;
31128;SDS011;17777;48.770;8.944;2023-06-10T10:50:22;1.92;;;1.83;;
31128;SDS011;17777;48.770;8.944;2023-06-10T10:52:56;1.55;;;1.45;;
31128;SDS011;17777;48.770;8.944;2023-06-10T10:55:27;2.10;;;1.60;;
31128;SDS011;17777;48.770;8.944;2023-06-10T10:57:56;1.95;;;1.85;;
31128;SDS011;17777;48.770;8.944;2023-06-10T11:00:31;2.05;;;1.85;;
31128;SDS011;17777;48.770;8.944;2023-06-10T11:03:12;1.77;;;1.67;;
31128;SDS011;17777;48.770;8.944;2023-06-10T11:05:45;1.77;;;1.67;;
31128;SDS011;17777;48.770;8.944;2023-06-10T11:10:57;1.90;;;1.80;;
31128;SDS011;17777;48.770;8.944;2023-06-10T11:13:25;2.15;;;1.90;;
31128;SDS011;17777;48.770;8.944;2023-06-10T11:15:52;3.08;;;2.00;;
31128;SDS011;17777;48.770;8.944;2023-06-10T11:18:24;1.70;;;1.60;;
31128;SDS011;17777;48.770;8.944;2023-06-10T11:21:04;1.95;;;1.77;;
31128;SDS011;17777;48.770;8.944;2023-06-10T11:23:32;1.85;;;1.67;;
31128;SDS011;17777;48.770;8.944;2023-06-10T11:33:55;2.03;;;1.88;;
31128;SDS011;17777;48.770;8.944;2023-06-10T11:36:23;2.05;;;1.95;;
31128;SDS011;17777;48.770;8.944;2023-06-10T11:38:55;1.98;;;1.80;;
31128;SDS011;17777;48.770;8.944;2023-06-10T11:41:24;2.42;;;1.77;;
31128;SDS011;17777;48.770;8.944;2023-06-10T11:43:51;1.80;;;1.70;;
31128;SDS011;17777;48.770;8.944;2023-06-10T11:46:19;1.80;;;1.70;;
31128;SDS011;17777;48.770;8.944;2023-06-10T11:48:51;1.90;;;1.80;;
31128;SDS011;17777;48.770;8.944;2023-06-10T11:51:19;2.20;;;2.00;;
31128;SDS011;17777;48.770;8.944;2023-06-10T11:53:46;2.10;;;2.00;;
31128;SDS011;17777;48.770;8.944;2023-06-10T11:56:13;2.72;;;1.65;;
31128;SDS011;17777;48.770;8.944;2023-06-10T11:58:45;1.63;;;1.52;;
31128;SDS011;17777;48.770;8.944;2023-06-10T12:01:24;2.10;;;1.90;;
31128;SDS011;17777;48.770;8.944;2023-06-10T12:04:02;2.00;;;1.90;;
31128;SDS011;17777;48.770;8.944;2023-06-10T12:09:30;2.05;;;1.80;;
31128;SDS011;17777;48.770;8.944;2023-06-10T12:19:55;1.67;;;1.58;;
31128;SDS011;17777;48.770;8.944;2023-06-10T12:22:21;2.72;;;1.88;;
31128;SDS011;17777;48.770;8.944;2023-06-10T12:24:58;2.90;;;1.83;;
31128;SDS011;17777;48.770;8.944;2023-06-10T12:27:26;1.75;;;1.63;;
31128;SDS011;17777;48.770;8.944;2023-06-10T12:29:55;3.22;;;1.80;;
31128;SDS011;17777;48.770;8.944;2023-06-10T12:32:39;2.13;;;1.88;;
31128;SDS011;17777;48.770;8.944;2023-06-10T12:35:06;1.50;;;1.40;;
31128;SDS011;17777;48.770;8.944;2023-06-10T12:37:34;1.75;;;1.65;;
31128;SDS011;17777;48.770;8.944;2023-06-10T12:40:02;1.58;;;1.48;;
31128;SDS011;17777;48.770;8.944;2023-06-10T12:42:31;1.95;;;1.85;;
31128;SDS011;17777;48.770;8.944;2023-06-10T12:44:59;1.55;;;1.45;;
31128;SDS011;17777;48.770;8.944;2023-06-10T12:47:29;1.77;;;1.67;;
31128;SDS011;17777;48.770;8.944;2023-06-10T12:49:58;2.72;;;1.52;;
31128;SDS011;17777;48.770;8.944;2023-06-10T12:52:24;1.50;;;1.40;;
31128;SDS011;17777;48.770;8.944;2023-06-10T12:54:50;1.85;;;1.75;;
31128;SDS011;17777;48.770;8.944;2023-06-10T12:57:17;1.45;;;1.35;;
31128;SDS011;17777;48.770;8.944;2023-06-10T12:59:43;1.70;;;1.60;;
31128;SDS011;17777;48.770;8.944;2023-06-10T13:02:15;1.83;;;1.38;;
31128;SDS011;17777;48.770;8.944;2023-06-10T13:04:43;1.50;;;1.40;;
31128;SDS011;17777;48.770;8.944;2023-06-10T13:07:09;1.70;;;1.52;;
31128;SDS011;17777;48.770;8.944;2023-06-10T13:09:35;1.65;;;1.55;;
31128;SDS011;17777;48.770;8.944;2023-06-10T13:12:02;1.85;;;1.75;;
31128;SDS011;17777;48.770;8.944;2023-06-10T13:14:28;1.70;;;1.60;;
31128;SDS011;17777;48.770;8.944;2023-06-10T13:16:54;1.58;;;1.48;;
31128;SDS011;17777;48.770;8.944;2023-06-10T13:19:20;2.25;;;1.75;;
31128;SDS011;17777;48.770;8.944;2023-06-10T13:21:49;1.70;;;1.60;;
31128;SDS011;17777;48.770;8.944;2023-06-10T13:24:15;1.95;;;1.80;;
31128;SDS011;17777;48.770;8.944;2023-06-10T13:26:41;1.73;;;1.40;;
31128;SDS011;17777;48.770;8.944;2023-06-10T13:29:06;1.80;;;1.70;;
31128;SDS011;17777;48.770;8.944;2023-06-10T13:31:39;1.75;;;1.65;;
31128;SDS011;17777;48.770;8.944;2023-06-10T13:34:05;1.55;;;1.45;;
31128;SDS011;17777;48.770;8.944;2023-06-10T13:36:31;2.03;;;1.40;;
31128;SDS011;17777;48.770;8.944;2023-06-10T13:38:58;1.70;;;1.60;;
31128;SDS011;17777;48.770;8.944;2023-06-10T13:41:23;1.40;;;1.30;;
31128;SDS011;17777;48.770;8.944;2023-06-10T13:43:49;1.35;;;1.25;;
31128;SDS011;17777;48.770;8.944;2023-06-10T13:46:15;1.67;;;1.58;;
31128;SDS011;17777;48.770;8.944;2023-06-10T13:48:41;1.75;;;1.45;;
31128;SDS011;17777;48.770;8.944;2023-06-10T13:51:07;3.63;;;1.85;;
31128;SDS011;17777;48.770;8.944;2023-06-10T13:53:34;1.48;;;1.38;;
31128;SDS011;17777;48.770;8.944;2023-06-10T13:56:01;1.67;;;1.58;;
31128;SDS011;17777;48.770;8.944;2023-06-10T13:58:26;1.50;;;1.40;;
31128;SDS011;17777;48.770;8.944;2023-06-10T14:00:52;2.33;;;1.63;;
31128;SDS011;17777;48.770;8.944;2023-06-10T14:03:18;1.52;;;1.42;;
31128;SDS011;17777;48.770;8.944;2023-06-10T14:05:44;1.58;;;1.40;;
31128;SDS011;17777;48.770;8.944;2023-06-10T14:08:10;1.50;;;1.40;;
31128;SDS011;17777;48.770;8.944;2023-06-10T14:10:35;1.30;;;1.20;;
31128;SDS011;17777;48.770;8.944;2023-06-10T14:13:01;1.25;;;1.15;;
31128;SDS011;17777;48.770;8.944;2023-06-10T14:15:27;1.48;;;1.38;;
31128;SDS011;17777;48.770;8.944;2023-06-10T14:17:53;1.40;;;1.30;;
31128;SDS011;17777;48.770;8.944;2023-06-10T14:20:18;1.50;;;1.40;;
31128;SDS011;17777;48.770;8.944;2023-06-10T14:22:44;1.38;;;1.27;;
31128;SDS011;17777;48.770;8.944;2023-06-10T14:25:10;1.30;;;1.20;;
31128;SDS011;17777;48.770;8.944;2023-06-10T14:27:36;1.27;;;1.20;;
31128;SDS011;17777;48.770;8.944;2023-06-10T14:30:02;2.05;;;1.23;;
31128;SDS011;17777;48.770;8.944;2023-06-10T14:32:30;1.27;;;1.17;;
31128;SDS011;17777;48.770;8.944;2023-06-10T14:34:56;1.52;;;1.40;;
31128;SDS011;17777;48.770;8.944;2023-06-10T14:37:22;1.58;;;1.40;;
31128;SDS011;17777;48.770;8.944;2023-06-10T14:39:47;1.55;;;1.45;;
31128;SDS011;17777;48.770;8.944;2023-06-10T14:42:13;1.90;;;1.30;;
31128;SDS011;17777;48.770;8.944;2023-06-10T14:44:39;1.50;;;1.40;;
31128;SDS011;17777;48.770;8.944;2023-06-10T14:47:05;1.30;;;1.20;;
31128;SDS011;17777;48.770;8.944;2023-06-10T14:49:31;1.67;;;1.50;;
31128;SDS011;17777;48.770;8.944;2023-06-10T14:51:56;1.17;;;1.08;;
31128;SDS011;17777;48.770;8.944;2023-06-10T14:54:22;1.60;;;1.50;;
31128;SDS011;17777;48.770;8.944;2023-06-10T14:56:48;2.00;;;1.40;;
31128;SDS011;17777;48.770;8.944;2023-06-10T14:59:14;1.40;;;1.30;;
31128;SDS011;17777;48.770;8.944;2023-06-10T15:01:39;1.40;;;1.30;;
31128;SDS011;17777;48.770;8.944;2023-06-10T15:04:05;1.23;;;1.13;;
31128;SDS011;17777;48.770;8.944;2023-06-10T15:06:31;1.30;;;1.20;;
31128;SDS011;17777;48.770;8.944;2023-06-10T15:08:56;1.50;;;1.40;;
31128;SDS011;17777;48.770;8.944;2023-06-10T15:11:22;1.85;;;1.33;;
31128;SDS011;17777;48.770;8.944;2023-06-10T15:13:48;1.20;;;1.20;;
31128;SDS011;17777;48.770;8.944;2023-06-10T15:16:14;1.33;;;1.23;;
31128;SDS011;17777;48.770;8.944;2023-06-10T15:18:40;2.88;;;1.52;;
31128;SDS011;17777;48.770;8.944;2023-06-10T15:21:06;1.33;;;1.23;;
31128;SDS011;17777;48.770;8.944;2023-06-10T15:23:31;1.70;;;1.60;;